Terminal Aerodrome Forecast
Issued by NWS

Current Version | Previous Version | Graphics & Text | Print | Product List | Glossary On
Versions: 1 2 3 4 5 6 7 8 9 10 11 12 13 14 15
205
FTUS41 KPBZ 190534
TAFMGW
TAF
KMGW 190534Z 1906/2006 10010G17KT 6SM -RA OVC050
     FM191000 13009KT P6SM VCSH OVC060
     FM191500 16008KT P6SM BKN060
     FM200000 19009KT 6SM -SHRA VCTS OVC070CB=

USA.gov is the U.S. government's official web portal to all federal, state and local government web resources and services.